createdAt,value
2022-10-09T00:00:48.944Z,9.80
2022-10-09T00:01:48.959Z,10.60
2022-10-09T00:02:49.257Z,9.80
2022-10-09T00:03:48.926Z,9.90
2022-10-09T00:04:48.996Z,10.40
2022-10-09T00:05:48.935Z,10.80
2022-10-09T00:06:48.872Z,10.40
2022-10-09T00:07:48.880Z,11.10
2022-10-09T00:08:48.861Z,11.10
2022-10-09T00:09:48.825Z,11.40
2022-10-09T00:10:48.827Z,10.80
2022-10-09T00:11:48.822Z,10.60
2022-10-09T00:12:49.033Z,10.70
2022-10-09T00:13:48.774Z,10.90
2022-10-09T00:14:48.767Z,10.60
2022-10-09T00:15:48.741Z,11.40
2022-10-09T00:16:48.842Z,11.30
2022-10-09T00:17:48.718Z,10.90
2022-10-09T00:18:48.707Z,11.10
2022-10-09T00:19:48.737Z,11.20
2022-10-09T00:20:48.678Z,11.20
2022-10-09T00:21:48.694Z,10.80
2022-10-09T00:22:48.852Z,10.60
2022-10-09T00:23:48.634Z,11.60
2022-10-09T00:24:48.655Z,11.40
2022-10-09T00:25:48.612Z,10.90
2022-10-09T00:26:48.630Z,10.90
2022-10-09T00:27:48.580Z,11.30
2022-10-09T00:28:48.622Z,11.40
2022-10-09T00:29:48.562Z,10.70
2022-10-09T00:30:48.620Z,11.40
2022-10-09T00:31:48.531Z,11.40
2022-10-09T00:32:48.836Z,11.80
2022-10-09T00:33:48.533Z,11.50
2022-10-09T00:34:48.493Z,11.60
2022-10-09T00:35:48.481Z,11.20
2022-10-09T00:36:48.469Z,10.60
2022-10-09T00:37:48.458Z,10.60
2022-10-09T00:38:48.462Z,11.00
2022-10-09T00:39:48.420Z,10.80
2022-10-09T00:40:48.416Z,11.00
2022-10-09T00:41:48.421Z,11.70
2022-10-09T00:42:48.681Z,11.40
2022-10-09T00:43:48.406Z,12.10
2022-10-09T00:44:48.357Z,11.70
2022-10-09T00:45:48.379Z,12.30
2022-10-09T00:46:48.368Z,11.80
2022-10-09T00:47:48.381Z,12.40
2022-10-09T00:48:48.306Z,12.50
2022-10-09T00:49:48.295Z,11.60
2022-10-09T00:50:48.334Z,11.70
2022-10-09T00:51:48.282Z,11.40
2022-10-09T00:52:48.491Z,11.40
2022-10-09T00:53:48.266Z,11.20
2022-10-09T00:54:48.257Z,10.50
2022-10-09T00:55:48.212Z,10.80
2022-10-09T00:56:48.200Z,10.30
2022-10-09T00:57:48.193Z,10.30
2022-10-09T00:58:48.184Z,10.40
2022-10-09T00:59:48.192Z,10.10
2022-10-09T01:00:48.140Z,9.60
2022-10-09T01:01:48.281Z,9.30
2022-10-09T01:02:48.523Z,10.40
2022-10-09T01:03:48.108Z,9.70
2022-10-09T01:04:48.116Z,10.40
2022-10-09T01:05:48.080Z,10.50
2022-10-09T01:06:48.065Z,11.00
2022-10-09T01:07:48.079Z,10.50
2022-10-09T01:08:48.041Z,12.20
2022-10-09T01:09:48.030Z,10.80
2022-10-09T01:10:48.011Z,11.00
2022-10-09T01:11:48.023Z,11.50
2022-10-09T01:12:48.281Z,11.40
2022-10-09T01:13:47.969Z,11.70
2022-10-09T01:14:47.978Z,11.20
2022-10-09T01:15:48.028Z,11.50
2022-10-09T01:16:47.936Z,11.80
2022-10-09T01:17:47.917Z,11.40
2022-10-09T01:18:47.905Z,11.30
2022-10-09T01:19:47.925Z,11.10
2022-10-09T01:20:47.884Z,11.20
2022-10-09T01:21:47.924Z,11.50
2022-10-09T01:22:48.109Z,11.30
2022-10-09T01:23:47.854Z,10.80
2022-10-09T01:24:47.827Z,11.10
2022-10-09T01:25:47.853Z,10.40
2022-10-09T01:26:47.822Z,10.20
2022-10-09T01:27:47.791Z,10.70
2022-10-09T01:28:47.790Z,10.70
2022-10-09T01:29:47.765Z,11.00
2022-10-09T01:30:47.789Z,10.30
2022-10-09T01:31:47.760Z,10.50
2022-10-09T01:32:48.003Z,10.90
2022-10-09T01:33:47.707Z,11.00
2022-10-09T01:34:47.694Z,11.80
2022-10-09T01:35:47.677Z,11.40
2022-10-09T01:36:47.693Z,10.40
2022-10-09T01:37:47.650Z,11.40
2022-10-09T01:38:47.688Z,11.20
2022-10-09T01:39:47.627Z,10.30
2022-10-09T01:40:47.610Z,10.50
2022-10-09T01:41:47.631Z,9.60
2022-10-09T01:42:48.039Z,10.00
2022-10-09T01:43:47.573Z,10.20
2022-10-09T01:44:47.559Z,10.20
2022-10-09T01:45:47.546Z,9.50
2022-10-09T01:46:47.559Z,10.00
2022-10-09T01:47:47.511Z,11.20
2022-10-09T01:48:47.503Z,10.60
2022-10-09T01:49:47.530Z,10.70
2022-10-09T01:50:47.470Z,11.00
2022-10-09T01:51:47.497Z,10.40
2022-10-09T01:52:47.766Z,10.30
2022-10-09T01:53:47.435Z,10.40
2022-10-09T01:54:47.419Z,9.90
2022-10-09T01:55:47.430Z,10.50
2022-10-09T01:56:47.395Z,10.30
2022-10-09T01:57:47.411Z,10.40
2022-10-09T01:58:47.389Z,9.80
2022-10-09T01:59:47.356Z,9.90
2022-10-09T02:00:47.342Z,9.80
2022-10-09T02:01:47.470Z,10.70
2022-10-09T02:02:47.724Z,11.40
2022-10-09T02:03:47.305Z,10.70
2022-10-09T02:04:47.296Z,11.90
2022-10-09T02:05:47.283Z,12.00
2022-10-09T02:06:47.261Z,11.60
2022-10-09T02:07:47.275Z,11.50
2022-10-09T02:08:47.261Z,10.90
2022-10-09T02:09:47.277Z,10.00
2022-10-09T02:10:47.198Z,10.40
2022-10-09T02:11:47.196Z,10.00
2022-10-09T02:12:47.547Z,10.60
2022-10-09T02:13:47.165Z,10.80
2022-10-09T02:14:47.162Z,11.10
2022-10-09T02:15:47.235Z,10.80
2022-10-09T02:16:47.126Z,10.80
2022-10-09T02:17:47.149Z,10.70
2022-10-09T02:18:47.202Z,10.50
2022-10-09T02:19:47.092Z,9.60
2022-10-09T02:20:47.075Z,10.60
2022-10-09T02:21:48.648Z,10.00
2022-10-09T02:22:47.443Z,10.50
2022-10-09T02:23:47.038Z,11.00
2022-10-09T02:24:47.063Z,12.10
2022-10-09T02:25:47.014Z,10.70
2022-10-09T02:26:46.991Z,11.20
2022-10-09T02:27:47.008Z,10.90
2022-10-09T02:28:47.062Z,11.80
2022-10-09T02:29:46.990Z,10.70
2022-10-09T02:30:46.981Z,10.40
2022-10-09T02:31:46.942Z,10.40
2022-10-09T02:32:47.259Z,10.20
2022-10-09T02:33:46.904Z,9.90
2022-10-09T02:34:46.918Z,9.30
2022-10-09T02:35:46.872Z,9.50
2022-10-09T02:36:46.865Z,9.40
2022-10-09T02:37:46.845Z,9.60
2022-10-09T02:38:46.842Z,9.00
2022-10-09T02:39:46.856Z,8.70
2022-10-09T02:40:46.814Z,8.60
2022-10-09T02:41:46.799Z,8.80
2022-10-09T02:42:47.232Z,9.30
2022-10-09T02:43:46.815Z,9.00
2022-10-09T02:44:46.754Z,8.70
2022-10-09T02:45:46.765Z,9.00
2022-10-09T02:46:46.827Z,8.70
2022-10-09T02:47:46.740Z,8.40
2022-10-09T02:48:46.701Z,8.00
2022-10-09T02:49:46.713Z,7.60
2022-10-09T02:50:46.675Z,8.10
2022-10-09T02:51:46.661Z,8.30
2022-10-09T02:52:47.101Z,7.90
2022-10-09T02:53:46.641Z,7.70
2022-10-09T02:54:46.644Z,7.60
2022-10-09T02:55:46.611Z,8.00
2022-10-09T02:56:46.597Z,7.60
2022-10-09T02:57:46.578Z,8.10
2022-10-09T02:58:46.574Z,8.20
2022-10-09T02:59:46.589Z,9.20
2022-10-09T03:00:46.563Z,10.80
2022-10-09T03:01:46.680Z,9.80
2022-10-09T03:02:46.985Z,10.70
2022-10-09T03:03:46.500Z,9.30
2022-10-09T03:04:46.493Z,8.80
2022-10-09T03:05:46.528Z,8.70
2022-10-09T03:06:46.458Z,8.90
2022-10-09T03:07:46.451Z,8.70
2022-10-09T03:08:46.440Z,8.80
2022-10-09T03:09:46.440Z,8.50
2022-10-09T03:10:46.429Z,8.40
2022-10-09T03:11:46.418Z,8.00
2022-10-09T03:12:46.700Z,8.20
2022-10-09T03:13:46.370Z,8.30
2022-10-09T03:14:46.379Z,8.20
2022-10-09T03:15:46.430Z,7.90
2022-10-09T03:16:46.350Z,8.00
2022-10-09T03:17:46.325Z,8.40
2022-10-09T03:18:46.296Z,8.80
2022-10-09T03:19:46.358Z,8.70
2022-10-09T03:20:46.268Z,8.70
2022-10-09T03:21:46.307Z,8.30
2022-10-09T03:22:46.606Z,8.30
2022-10-09T03:23:46.230Z,8.50
2022-10-09T03:24:46.254Z,8.50
2022-10-09T03:25:46.209Z,9.50
2022-10-09T03:26:46.197Z,8.90
2022-10-09T03:27:46.214Z,10.00
2022-10-09T03:28:46.218Z,9.90
2022-10-09T03:29:46.181Z,10.70
2022-10-09T03:30:46.136Z,10.80
2022-10-09T03:31:52.575Z,16.70
2022-10-09T03:32:46.326Z,15.10
2022-10-09T03:33:46.114Z,13.60
2022-10-09T03:34:46.122Z,12.30
2022-10-09T03:35:46.066Z,12.20
2022-10-09T03:36:46.086Z,12.00
2022-10-09T03:37:46.059Z,12.00
2022-10-09T03:38:46.024Z,11.50
2022-10-09T03:39:46.127Z,11.80
2022-10-09T03:40:46.046Z,12.40
2022-10-09T03:41:46.000Z,11.70
2022-10-09T03:42:46.151Z,12.10
2022-10-09T03:43:45.965Z,12.80
2022-10-09T03:44:46.070Z,13.10
2022-10-09T03:45:45.948Z,12.80
2022-10-09T03:46:46.044Z,14.20
2022-10-09T03:47:45.943Z,13.90
2022-10-09T03:48:45.892Z,14.10
2022-10-09T03:49:45.893Z,14.20
2022-10-09T03:50:45.889Z,14.20
2022-10-09T03:51:45.865Z,13.90
2022-10-09T03:52:46.260Z,14.50
2022-10-09T03:53:45.830Z,13.10
2022-10-09T03:54:45.827Z,12.80
2022-10-09T03:55:45.899Z,12.60
2022-10-09T03:56:45.796Z,12.50
2022-10-09T03:57:45.795Z,12.10
2022-10-09T03:58:45.764Z,11.90
2022-10-09T03:59:45.758Z,11.60
2022-10-09T04:00:45.768Z,11.20
2022-10-09T04:01:45.767Z,11.10
2022-10-09T04:02:45.866Z,10.80
2022-10-09T04:03:45.710Z,11.50
2022-10-09T04:04:45.688Z,11.10
2022-10-09T04:05:45.704Z,11.00
2022-10-09T04:06:45.659Z,11.10
2022-10-09T04:07:45.650Z,11.00
2022-10-09T04:08:45.634Z,11.20
2022-10-09T04:09:45.669Z,10.20
2022-10-09T04:10:45.600Z,10.90
2022-10-09T04:11:45.624Z,10.50
2022-10-09T04:12:45.722Z,10.30
2022-10-09T04:13:45.589Z,10.60
2022-10-09T04:14:45.579Z,10.10
2022-10-09T04:15:45.536Z,9.40
2022-10-09T04:16:45.569Z,10.30
2022-10-09T04:17:45.521Z,10.00
2022-10-09T04:18:45.527Z,10.00
2022-10-09T04:19:45.516Z,10.30
2022-10-09T04:20:45.468Z,9.80
2022-10-09T04:21:45.500Z,9.60
2022-10-09T04:22:45.670Z,9.70
2022-10-09T04:23:45.462Z,9.90
2022-10-09T04:24:45.462Z,9.10
2022-10-09T04:25:45.403Z,10.20
2022-10-09T04:26:45.421Z,9.70
2022-10-09T04:27:45.378Z,9.90
2022-10-09T04:28:45.417Z,10.10
2022-10-09T04:29:45.354Z,10.50
2022-10-09T04:30:45.334Z,10.00
2022-10-09T04:31:45.418Z,9.70
2022-10-09T04:32:45.423Z,10.00
2022-10-09T04:33:45.303Z,10.30
2022-10-09T04:34:45.433Z,9.50
2022-10-09T04:35:45.315Z,10.10
2022-10-09T04:36:45.260Z,9.90
2022-10-09T04:37:45.244Z,9.80
2022-10-09T04:38:45.234Z,10.20
2022-10-09T04:39:45.243Z,10.10
2022-10-09T04:40:45.194Z,9.60
2022-10-09T04:41:45.190Z,10.10
2022-10-09T04:42:45.191Z,9.70
2022-10-09T04:43:45.177Z,9.70
2022-10-09T04:44:45.188Z,9.40
2022-10-09T04:45:45.204Z,9.80
2022-10-09T04:46:45.120Z,9.70
2022-10-09T04:47:45.115Z,10.50
2022-10-09T04:48:45.100Z,9.70
2022-10-09T04:49:45.203Z,9.70
2022-10-09T04:50:45.067Z,9.50
2022-10-09T04:51:45.093Z,9.50
2022-10-09T04:52:45.101Z,9.70
2022-10-09T04:53:45.064Z,9.50
2022-10-09T04:54:45.013Z,9.80
2022-10-09T04:55:45.004Z,9.60
2022-10-09T04:56:44.994Z,9.30
2022-10-09T04:57:44.991Z,8.90
2022-10-09T04:58:44.984Z,9.80
2022-10-09T04:59:44.985Z,9.70
2022-10-09T05:00:45.074Z,9.70
2022-10-09T05:01:45.052Z,9.50
2022-10-09T05:02:44.910Z,9.50
2022-10-09T05:03:44.925Z,9.50
2022-10-09T05:04:44.886Z,10.40
2022-10-09T05:05:44.873Z,11.20
2022-10-09T05:06:44.855Z,11.20
2022-10-09T05:07:44.847Z,11.10
2022-10-09T05:08:44.862Z,10.70
2022-10-09T05:09:44.847Z,11.60
2022-10-09T05:10:44.807Z,11.20
2022-10-09T05:11:44.783Z,12.10
2022-10-09T05:12:44.787Z,11.90
2022-10-09T05:13:44.800Z,12.40
2022-10-09T05:14:44.789Z,12.70
2022-10-09T05:15:44.733Z,13.40
2022-10-09T05:17:08.282Z,14.70
2022-10-09T05:17:44.767Z,14.80
2022-10-09T05:18:44.706Z,15.70
2022-10-09T05:19:44.705Z,18.50
2022-10-09T05:20:44.669Z,18.90
2022-10-09T05:21:44.681Z,18.30
2022-10-09T05:22:44.648Z,18.90
2022-10-09T05:23:44.627Z,18.50
2022-10-09T05:24:44.624Z,18.10
2022-10-09T05:25:44.598Z,17.60
2022-10-09T05:26:44.620Z,22.00
2022-10-09T05:27:44.577Z,22.00
2022-10-09T05:28:44.639Z,18.70
2022-10-09T05:29:44.571Z,18.70
2022-10-09T05:30:44.544Z,17.40
2022-10-09T05:31:49.064Z,17.30
2022-10-09T05:32:44.515Z,17.00
2022-10-09T05:33:44.507Z,17.80
2022-10-09T05:34:44.502Z,17.90
2022-10-09T05:35:44.474Z,18.30
2022-10-09T05:36:44.458Z,17.80
2022-10-09T05:37:44.483Z,17.30
2022-10-09T05:38:44.464Z,17.50
2022-10-09T05:39:44.412Z,17.60
2022-10-09T05:40:44.428Z,16.70
2022-10-09T05:41:44.383Z,17.20
2022-10-09T05:42:44.377Z,16.70
2022-10-09T05:43:44.356Z,18.20
2022-10-09T05:44:44.351Z,18.50
2022-10-09T05:45:44.398Z,18.10
2022-10-09T05:46:44.325Z,18.20
2022-10-09T05:47:44.332Z,18.80
2022-10-09T05:48:44.298Z,18.40
2022-10-09T05:49:44.306Z,17.80
2022-10-09T05:50:44.282Z,17.50
2022-10-09T05:51:44.251Z,17.00
2022-10-09T05:52:44.249Z,18.10
2022-10-09T05:53:44.228Z,17.80
2022-10-09T05:54:44.244Z,17.80
2022-10-09T05:55:44.222Z,18.10
2022-10-09T05:56:44.189Z,18.30
2022-10-09T05:57:44.177Z,18.20
2022-10-09T05:58:44.184Z,17.90
2022-10-09T05:59:44.179Z,17.50
2022-10-09T06:00:44.153Z,18.90
2022-10-09T06:01:44.207Z,20.70
2022-10-09T06:02:44.370Z,21.00
2022-10-09T06:03:44.093Z,20.90
2022-10-09T06:04:44.118Z,21.10
2022-10-09T06:05:44.075Z,20.20
2022-10-09T06:06:44.062Z,20.20
2022-10-09T06:07:44.045Z,20.50
2022-10-09T06:08:44.046Z,20.80
2022-10-09T06:09:44.034Z,20.20
2022-10-09T06:10:44.047Z,21.10
2022-10-09T06:11:43.999Z,21.80
2022-10-09T06:12:43.981Z,22.20
2022-10-09T06:13:43.957Z,21.90
2022-10-09T06:14:43.969Z,21.00
2022-10-09T06:15:43.931Z,20.90
2022-10-09T06:16:43.980Z,21.40
2022-10-09T06:17:43.911Z,22.40
2022-10-09T06:18:48.687Z,21.50
2022-10-09T06:19:43.888Z,21.40
2022-10-09T06:20:43.865Z,21.20
2022-10-09T06:21:43.878Z,21.20
2022-10-09T06:22:43.842Z,21.00
2022-10-09T06:23:43.871Z,20.30
2022-10-09T06:24:43.814Z,20.30
2022-10-09T06:25:43.795Z,19.40
2022-10-09T06:26:43.834Z,19.20
2022-10-09T06:27:43.771Z,20.10
2022-10-09T06:28:43.814Z,20.00
2022-10-09T06:29:43.742Z,21.10
2022-10-09T06:30:43.810Z,20.40
2022-10-09T06:31:43.745Z,19.60
2022-10-09T06:32:43.727Z,20.20
2022-10-09T06:33:43.697Z,19.90
2022-10-09T06:34:43.705Z,20.40
2022-10-09T06:35:43.666Z,20.10
2022-10-09T06:36:43.664Z,19.20
2022-10-09T06:37:43.668Z,19.90
2022-10-09T06:38:43.661Z,18.80
2022-10-09T06:39:43.633Z,19.00
2022-10-09T06:40:43.627Z,18.10
2022-10-09T06:41:43.620Z,17.30
2022-10-09T06:42:43.603Z,16.40
2022-10-09T06:43:43.565Z,16.80
2022-10-09T06:44:43.581Z,17.40
2022-10-09T06:45:43.577Z,16.60
2022-10-09T06:46:43.522Z,18.10
2022-10-09T06:47:43.517Z,17.20
2022-10-09T06:48:43.491Z,17.30
2022-10-09T06:49:43.502Z,17.40
2022-10-09T06:50:43.471Z,17.20
2022-10-09T06:51:43.445Z,17.20
2022-10-09T06:52:43.483Z,18.00
2022-10-09T06:53:43.440Z,18.80
2022-10-09T06:54:43.413Z,19.10
2022-10-09T06:55:43.401Z,17.30
2022-10-09T06:56:43.384Z,17.00
2022-10-09T06:57:43.396Z,17.80
2022-10-09T06:58:43.368Z,17.30
2022-10-09T06:59:43.351Z,16.50
2022-10-09T07:00:43.329Z,16.90
2022-10-09T07:01:43.476Z,15.60
2022-10-09T07:02:44.332Z,16.10
2022-10-09T07:03:43.317Z,17.50
2022-10-09T07:04:43.282Z,18.30
2022-10-09T07:05:43.375Z,16.90
2022-10-09T07:06:43.268Z,16.90
2022-10-09T07:07:43.277Z,15.70
2022-10-09T07:08:43.253Z,15.40
2022-10-09T07:09:43.284Z,14.80
2022-10-09T07:10:43.231Z,14.80
2022-10-09T07:11:43.455Z,15.10
2022-10-09T07:12:43.180Z,15.50
2022-10-09T07:13:43.157Z,15.10
2022-10-09T07:14:43.166Z,14.50
2022-10-09T07:15:43.194Z,15.00
2022-10-09T07:16:43.129Z,15.70
2022-10-09T07:17:43.135Z,14.90
2022-10-09T07:18:43.092Z,15.50
2022-10-09T07:19:43.104Z,15.40
2022-10-09T07:20:43.065Z,15.10
2022-10-09T07:21:43.048Z,14.60
2022-10-09T07:22:43.041Z,14.70
2022-10-09T07:23:43.037Z,15.50
2022-10-09T07:24:43.039Z,14.40
2022-10-09T07:25:43.001Z,14.80
2022-10-09T07:26:43.009Z,13.90
2022-10-09T07:27:42.967Z,33.60
2022-10-09T07:28:43.063Z,13.80
2022-10-09T07:29:42.947Z,17.00
2022-10-09T07:30:42.967Z,13.90
2022-10-09T07:31:42.919Z,15.80
2022-10-09T07:32:42.929Z,16.60
2022-10-09T07:33:42.920Z,14.50
2022-10-09T07:34:42.880Z,13.40
2022-10-09T07:35:42.869Z,12.90
2022-10-09T07:36:42.848Z,13.30
2022-10-09T07:37:42.874Z,13.10
2022-10-09T07:38:42.852Z,13.00
2022-10-09T07:39:45.044Z,13.00
2022-10-09T07:40:42.801Z,13.20
2022-10-09T07:41:42.798Z,13.80
2022-10-09T07:42:42.793Z,13.90
2022-10-09T07:43:42.781Z,14.30
2022-10-09T07:44:42.748Z,14.00
2022-10-09T07:45:42.768Z,14.70
2022-10-09T07:46:42.792Z,14.10
2022-10-09T07:47:42.705Z,14.00
2022-10-09T07:48:42.811Z,13.50
2022-10-09T07:49:42.667Z,14.30
2022-10-09T07:50:42.673Z,13.50
2022-10-09T07:51:42.668Z,14.20
2022-10-09T07:52:42.641Z,14.50
2022-10-09T07:53:42.623Z,13.50
2022-10-09T07:54:42.652Z,11.70
2022-10-09T07:55:42.601Z,11.50
2022-10-09T07:56:42.611Z,11.70
2022-10-09T07:57:42.569Z,11.20
2022-10-09T07:58:42.554Z,11.50
2022-10-09T07:59:42.558Z,12.40
2022-10-09T08:00:42.534Z,12.20
2022-10-09T08:01:42.598Z,11.40
2022-10-09T08:02:42.570Z,11.80
2022-10-09T08:03:42.513Z,11.60
2022-10-09T08:04:42.495Z,13.20
2022-10-09T08:05:42.461Z,19.70
2022-10-09T08:06:42.484Z,14.50
2022-10-09T08:07:42.436Z,14.10
2022-10-09T08:08:42.437Z,14.40
2022-10-09T08:09:42.408Z,11.20
2022-10-09T08:10:42.431Z,11.50
2022-10-09T08:11:42.387Z,10.70
2022-10-09T08:12:42.369Z,10.90
2022-10-09T08:13:42.351Z,11.10
2022-10-09T08:14:42.467Z,11.60
2022-10-09T08:15:42.353Z,11.30
2022-10-09T08:16:42.319Z,11.00
2022-10-09T08:17:42.326Z,11.70
2022-10-09T08:18:42.305Z,12.10
2022-10-09T08:19:42.268Z,12.40
2022-10-09T08:20:42.283Z,12.90
2022-10-09T08:21:42.239Z,13.60
2022-10-09T08:22:42.255Z,13.90
2022-10-09T08:23:42.245Z,13.90
2022-10-09T08:24:42.215Z,13.90
2022-10-09T08:25:42.190Z,14.00
2022-10-09T08:26:42.174Z,13.00
2022-10-09T08:27:42.169Z,13.60
2022-10-09T08:28:42.314Z,12.20
2022-10-09T08:29:42.151Z,12.70
2022-10-09T08:30:42.226Z,12.00
2022-10-09T08:31:42.186Z,12.90
2022-10-09T08:32:42.101Z,11.60
2022-10-09T08:33:42.105Z,11.10
2022-10-09T08:34:42.112Z,12.00
2022-10-09T08:35:42.065Z,11.70
2022-10-09T08:36:42.052Z,12.80
2022-10-09T08:37:42.033Z,15.60
2022-10-09T08:38:49.128Z,14.00
2022-10-09T08:39:42.034Z,12.40
2022-10-09T08:40:41.998Z,11.30
2022-10-09T08:41:41.977Z,10.70
2022-10-09T08:42:41.965Z,12.40
2022-10-09T08:43:41.946Z,10.60
2022-10-09T08:44:41.961Z,11.60
2022-10-09T08:45:41.924Z,10.70
2022-10-09T08:46:41.989Z,10.80
2022-10-09T08:47:41.908Z,11.10
2022-10-09T08:48:41.874Z,10.70
2022-10-09T08:49:41.893Z,10.80
2022-10-09T08:50:41.856Z,9.90
2022-10-09T08:51:41.849Z,11.30
2022-10-09T08:52:41.861Z,11.80
2022-10-09T08:53:41.818Z,11.60
2022-10-09T08:54:41.802Z,11.00
2022-10-09T08:55:41.793Z,11.30
2022-10-09T08:56:41.772Z,10.30
2022-10-09T08:57:41.810Z,10.50
2022-10-09T08:58:41.749Z,10.20
2022-10-09T08:59:41.762Z,10.20
2022-10-09T09:00:41.722Z,11.90
2022-10-09T09:01:41.788Z,11.50
2022-10-09T09:02:41.774Z,12.10
2022-10-09T09:03:41.700Z,11.40
2022-10-09T09:04:41.693Z,10.90
2022-10-09T09:05:41.649Z,11.10
2022-10-09T09:06:41.688Z,11.30
2022-10-09T09:07:41.624Z,11.40
2022-10-09T09:08:41.616Z,10.80
2022-10-09T09:09:41.650Z,10.50
2022-10-09T09:10:41.639Z,10.10
2022-10-09T09:11:41.565Z,8.80
2022-10-09T09:12:41.592Z,9.20
2022-10-09T09:13:41.538Z,9.20
2022-10-09T09:14:41.571Z,9.40
2022-10-09T09:15:41.620Z,8.70
2022-10-09T09:16:41.509Z,9.10
2022-10-09T09:17:41.492Z,9.30
2022-10-09T09:18:43.016Z,8.90
2022-10-09T09:19:41.468Z,8.90
2022-10-09T09:20:41.447Z,9.10
2022-10-09T09:21:41.440Z,9.00
2022-10-09T09:22:41.487Z,9.40
2022-10-09T09:23:41.419Z,8.50
2022-10-09T09:24:41.399Z,8.60
2022-10-09T09:25:41.386Z,8.90
2022-10-09T09:26:41.372Z,9.50
2022-10-09T09:27:41.385Z,9.00
2022-10-09T09:28:41.430Z,9.10
2022-10-09T09:29:41.330Z,8.60
2022-10-09T09:30:41.319Z,8.50
2022-10-09T09:31:41.382Z,8.30
2022-10-09T09:32:41.288Z,9.10
2022-10-09T09:33:44.576Z,8.80
2022-10-09T09:34:41.290Z,8.40
2022-10-09T09:35:41.267Z,8.30
2022-10-09T09:36:41.236Z,9.40
2022-10-09T09:37:41.245Z,9.10
2022-10-09T09:39:12.620Z,8.60
2022-10-09T09:40:45.897Z,9.00
2022-10-09T09:41:41.185Z,8.90
2022-10-09T09:42:41.157Z,9.30
2022-10-09T09:43:41.146Z,8.70
2022-10-09T09:44:41.162Z,8.80
2022-10-09T09:45:41.148Z,8.80
2022-10-09T09:46:41.170Z,8.90
2022-10-09T09:47:41.103Z,8.70
2022-10-09T09:48:41.071Z,12.80
2022-10-09T09:49:41.123Z,10.60
2022-10-09T09:50:56.383Z,10.10
2022-10-09T09:51:41.081Z,9.50
2022-10-09T09:52:41.017Z,8.80
2022-10-09T09:53:41.020Z,9.40
2022-10-09T09:54:40.991Z,9.60
2022-10-09T09:55:41.010Z,10.00
2022-10-09T09:57:11.195Z,10.90
2022-10-09T09:57:40.981Z,10.20
2022-10-09T09:58:40.945Z,9.00
2022-10-09T09:59:40.949Z,9.30
2022-10-09T10:00:40.973Z,9.60
2022-10-09T10:01:40.965Z,9.10
2022-10-09T10:02:40.894Z,9.10
2022-10-09T10:03:40.870Z,8.90
2022-10-09T10:04:43.272Z,9.20
2022-10-09T10:05:40.849Z,9.20
2022-10-09T10:06:40.858Z,9.30
2022-10-09T10:07:40.829Z,9.30
2022-10-09T10:08:40.807Z,8.60
2022-10-09T10:09:40.790Z,9.00
2022-10-09T10:10:40.782Z,9.30
2022-10-09T10:11:40.786Z,8.60
2022-10-09T10:12:40.750Z,8.40
2022-10-09T10:13:40.740Z,8.00
2022-10-09T10:14:40.741Z,8.10
2022-10-09T10:15:40.706Z,8.00
2022-10-09T10:16:40.793Z,8.10
2022-10-09T10:17:40.768Z,8.20
2022-10-09T10:18:40.671Z,8.80
2022-10-09T10:19:40.677Z,8.50
2022-10-09T10:20:40.642Z,8.50
2022-10-09T10:21:40.642Z,8.30
2022-10-09T10:22:40.627Z,8.10
2022-10-09T10:23:40.611Z,7.80
2022-10-09T10:24:40.629Z,9.40
2022-10-09T10:25:40.615Z,10.00
2022-10-09T10:26:40.588Z,8.50
2022-10-09T10:27:40.581Z,8.60
2022-10-09T10:28:40.613Z,8.20
2022-10-09T10:29:40.534Z,7.90
2022-10-09T10:30:40.536Z,8.10
2022-10-09T10:31:40.537Z,8.40
2022-10-09T10:32:40.520Z,8.30
2022-10-09T10:33:40.482Z,8.60
2022-10-09T10:34:40.465Z,9.00
2022-10-09T10:35:40.448Z,8.60
2022-10-09T10:36:40.457Z,8.60
2022-10-09T10:37:40.428Z,8.20
2022-10-09T10:38:40.408Z,8.60
2022-10-09T10:39:40.391Z,7.80
2022-10-09T10:40:40.382Z,8.30
2022-10-09T10:41:40.395Z,8.10
2022-10-09T10:42:40.354Z,8.00
2022-10-09T10:43:40.352Z,7.70
2022-10-09T10:44:40.324Z,8.00
2022-10-09T10:45:40.322Z,8.50
2022-10-09T10:46:40.378Z,7.90
2022-10-09T10:47:40.303Z,8.60
2022-10-09T10:48:40.273Z,8.60
2022-10-09T10:49:40.486Z,7.90
2022-10-09T10:50:40.249Z,7.90
2022-10-09T10:51:40.255Z,8.10
2022-10-09T10:52:40.226Z,7.40
2022-10-09T10:53:40.224Z,7.70
2022-10-09T10:54:40.193Z,7.90
2022-10-09T10:55:40.215Z,7.90
2022-10-09T10:56:40.204Z,7.60
2022-10-09T10:57:40.163Z,7.40
2022-10-09T10:58:40.137Z,7.10
2022-10-09T10:59:40.118Z,9.50
2022-10-09T11:00:40.193Z,8.00
2022-10-09T11:01:40.123Z,8.20
2022-10-09T11:02:42.193Z,7.90
2022-10-09T11:03:40.166Z,7.60
2022-10-09T11:04:40.082Z,8.00
2022-10-09T11:05:40.041Z,7.80
2022-10-09T11:06:40.091Z,7.40
2022-10-09T11:07:40.056Z,7.30
2022-10-09T11:08:40.027Z,7.20
2022-10-09T11:09:39.996Z,7.20
2022-10-09T11:10:39.986Z,7.20
2022-10-09T11:11:39.970Z,7.70
2022-10-09T11:12:48.476Z,7.40
2022-10-09T11:13:39.946Z,7.50
2022-10-09T11:14:39.924Z,7.50
2022-10-09T11:15:39.938Z,7.00
2022-10-09T11:16:39.960Z,7.20
2022-10-09T11:17:39.885Z,8.00
2022-10-09T11:18:39.952Z,8.30
2022-10-09T11:19:45.105Z,8.70
2022-10-09T11:20:39.867Z,7.70
2022-10-09T11:21:39.841Z,8.10
2022-10-09T11:22:39.816Z,8.20
2022-10-09T11:23:39.803Z,8.00
2022-10-09T11:24:39.784Z,8.10
2022-10-09T11:25:39.815Z,7.90
2022-10-09T11:26:39.775Z,8.00
2022-10-09T11:27:39.746Z,8.00
2022-10-09T11:28:39.811Z,8.20
2022-10-09T11:29:39.717Z,7.50
2022-10-09T11:30:39.701Z,8.10
2022-10-09T11:31:39.807Z,8.10
2022-10-09T11:33:39.670Z,9.20
2022-10-09T11:34:39.646Z,8.10
2022-10-09T11:35:39.667Z,7.90
2022-10-09T11:36:39.654Z,7.90
2022-10-09T11:37:39.626Z,7.50
2022-10-09T11:38:39.600Z,7.30
2022-10-09T11:39:39.582Z,7.40
2022-10-09T11:40:39.569Z,7.90
2022-10-09T11:41:39.594Z,7.40
2022-10-09T11:42:39.551Z,7.70
2022-10-09T11:43:39.529Z,8.00
2022-10-09T11:44:39.515Z,8.00
2022-10-09T11:45:39.522Z,8.20
2022-10-09T11:46:39.513Z,8.30
2022-10-09T11:47:39.529Z,9.40
2022-10-09T11:48:39.465Z,9.90
2022-10-09T11:49:39.443Z,10.60
2022-10-09T11:50:39.459Z,8.90
2022-10-09T11:51:39.449Z,7.90
2022-10-09T11:52:39.429Z,8.00
2022-10-09T11:53:39.392Z,7.50
2022-10-09T11:54:39.410Z,7.90
2022-10-09T11:55:39.394Z,8.00
2022-10-09T11:56:39.346Z,7.70
2022-10-09T11:57:39.336Z,7.80
2022-10-09T11:58:39.323Z,7.70
2022-10-09T11:59:39.320Z,7.70
2022-10-09T12:00:39.346Z,8.00
2022-10-09T12:01:39.394Z,7.30
2022-10-09T12:02:39.320Z,9.00
2022-10-09T12:03:39.262Z,7.90
2022-10-09T12:04:55.583Z,7.80
2022-10-09T12:05:39.241Z,7.80
2022-10-09T12:06:39.220Z,7.10
2022-10-09T12:08:39.199Z,7.20
2022-10-09T12:09:39.192Z,7.00
2022-10-09T12:10:39.175Z,6.90
2022-10-09T12:11:39.166Z,7.50
2022-10-09T12:12:39.162Z,7.40
2022-10-09T12:13:39.128Z,12.00
2022-10-09T12:14:39.104Z,9.40
2022-10-09T12:15:39.103Z,8.40
2022-10-09T12:16:39.190Z,7.90
2022-10-09T12:17:39.062Z,7.80
2022-10-09T12:18:39.096Z,7.90
2022-10-09T12:19:39.040Z,14.00
2022-10-09T12:20:39.042Z,7.80
2022-10-09T12:21:39.011Z,8.90
2022-10-09T12:22:39.022Z,8.70
2022-10-09T12:23:39.027Z,9.60
2022-10-09T12:24:38.969Z,7.60
2022-10-09T12:25:38.973Z,7.70
2022-10-09T12:26:38.963Z,7.30
2022-10-09T12:27:38.949Z,7.10
2022-10-09T12:28:39.106Z,7.00
2022-10-09T12:29:38.928Z,6.70
2022-10-09T12:30:40.843Z,6.90
2022-10-09T12:31:38.875Z,7.10
2022-10-09T12:32:38.916Z,7.20
2022-10-09T12:33:38.854Z,6.80
2022-10-09T12:34:38.842Z,6.20
2022-10-09T12:35:38.871Z,6.60
2022-10-09T12:36:38.812Z,6.00
2022-10-09T12:37:38.805Z,5.90
2022-10-09T12:38:38.808Z,5.70
2022-10-09T12:39:38.768Z,5.80
2022-10-09T12:40:38.777Z,5.40
2022-10-09T12:41:38.752Z,5.80
2022-10-09T12:42:38.757Z,5.80
2022-10-09T12:43:38.717Z,5.70
2022-10-09T12:44:38.749Z,5.50
2022-10-09T12:45:38.730Z,5.40
2022-10-09T12:46:38.665Z,5.60
2022-10-09T12:47:38.701Z,5.80
2022-10-09T12:48:38.652Z,5.50
2022-10-09T12:49:38.669Z,5.40
2022-10-09T12:50:38.647Z,5.40
2022-10-09T12:51:38.608Z,5.30
2022-10-09T12:52:38.599Z,5.70
2022-10-09T12:53:38.612Z,6.20
2022-10-09T12:54:38.576Z,5.90
2022-10-09T12:55:38.559Z,6.20
2022-10-09T12:56:38.542Z,7.10
2022-10-09T12:57:38.561Z,5.70
2022-10-09T12:58:38.513Z,6.10
2022-10-09T12:59:38.510Z,5.70
2022-10-09T13:00:38.486Z,5.40
2022-10-09T13:01:38.598Z,5.50
2022-10-09T13:02:38.703Z,5.30
2022-10-09T13:03:38.461Z,5.50
2022-10-09T13:04:38.441Z,5.60
2022-10-09T13:05:38.444Z,5.60
2022-10-09T13:06:38.406Z,5.30